sensor_id;sensor_type;location;lat;lon;timestamp;P1;durP1;ratioP1;P2;durP2;ratioP2
9445;SDS011;4761;49.490;10.908;2023-06-22T00:02:12;3.70;;;3.40;;
9445;SDS011;4761;49.490;10.908;2023-06-22T00:04:38;3.90;;;3.60;;
9445;SDS011;4761;49.490;10.908;2023-06-22T00:07:03;3.70;;;3.40;;
9445;SDS011;4761;49.490;10.908;2023-06-22T00:09:29;3.63;;;3.33;;
9445;SDS011;4761;49.490;10.908;2023-06-22T00:11:56;3.30;;;3.00;;
9445;SDS011;4761;49.490;10.908;2023-06-22T00:14:21;4.03;;;3.70;;
9445;SDS011;4761;49.490;10.908;2023-06-22T00:16:47;3.97;;;3.53;;
9445;SDS011;4761;49.490;10.908;2023-06-22T00:19:13;3.90;;;3.60;;
9445;SDS011;4761;49.490;10.908;2023-06-22T00:21:40;3.63;;;3.33;;
9445;SDS011;4761;49.490;10.908;2023-06-22T00:24:05;3.78;;;3.47;;
9445;SDS011;4761;49.490;10.908;2023-06-22T00:26:31;3.58;;;3.28;;
9445;SDS011;4761;49.490;10.908;2023-06-22T00:28:57;3.83;;;3.53;;
9445;SDS011;4761;49.490;10.908;2023-06-22T00:31:22;3.58;;;3.28;;
9445;SDS011;4761;49.490;10.908;2023-06-22T00:33:48;3.58;;;3.28;;
9445;SDS011;4761;49.490;10.908;2023-06-22T00:36:15;4.15;;;3.83;;
9445;SDS011;4761;49.490;10.908;2023-06-22T00:38:42;3.90;;;3.60;;
9445;SDS011;4761;49.490;10.908;2023-06-22T00:41:08;3.92;;;3.63;;
9445;SDS011;4761;49.490;10.908;2023-06-22T00:43:34;3.88;;;3.58;;
9445;SDS011;4761;49.490;10.908;2023-06-22T00:45:59;4.47;;;3.58;;
9445;SDS011;4761;49.490;10.908;2023-06-22T00:48:25;3.95;;;3.60;;
9445;SDS011;4761;49.490;10.908;2023-06-22T00:50:51;3.80;;;3.50;;
9445;SDS011;4761;49.490;10.908;2023-06-22T00:53:18;3.38;;;3.15;;
9445;SDS011;4761;49.490;10.908;2023-06-22T00:55:44;4.30;;;3.90;;
9445;SDS011;4761;49.490;10.908;2023-06-22T00:58:11;3.70;;;3.40;;
9445;SDS011;4761;49.490;10.908;2023-06-22T01:00:39;3.97;;;3.67;;
9445;SDS011;4761;49.490;10.908;2023-06-22T01:03:06;3.60;;;3.30;;
9445;SDS011;4761;49.490;10.908;2023-06-22T01:05:35;4.03;;;3.72;;
9445;SDS011;4761;49.490;10.908;2023-06-22T01:15:51;4.20;;;3.80;;
9445;SDS011;4761;49.490;10.908;2023-06-22T01:18:22;4.20;;;3.80;;
9445;SDS011;4761;49.490;10.908;2023-06-22T01:20:51;4.25;;;3.85;;
9445;SDS011;4761;49.490;10.908;2023-06-22T01:23:29;4.07;;;3.78;;
9445;SDS011;4761;49.490;10.908;2023-06-22T01:29:03;4.05;;;3.65;;
9445;SDS011;4761;49.490;10.908;2023-06-22T01:31:30;4.53;;;3.70;;
9445;SDS011;4761;49.490;10.908;2023-06-22T01:33:58;4.10;;;3.80;;
9445;SDS011;4761;49.490;10.908;2023-06-22T01:36:26;3.90;;;3.60;;
9445;SDS011;4761;49.490;10.908;2023-06-22T01:38:52;4.10;;;3.80;;
9445;SDS011;4761;49.490;10.908;2023-06-22T01:41:21;4.45;;;4.05;;
9445;SDS011;4761;49.490;10.908;2023-06-22T01:43:49;4.32;;;3.92;;
9445;SDS011;4761;49.490;10.908;2023-06-22T01:46:17;4.50;;;4.10;;
9445;SDS011;4761;49.490;10.908;2023-06-22T01:48:44;4.05;;;3.75;;
9445;SDS011;4761;49.490;10.908;2023-06-22T01:51:11;4.32;;;3.92;;
9445;SDS011;4761;49.490;10.908;2023-06-22T01:53:37;4.50;;;4.10;;
9445;SDS011;4761;49.490;10.908;2023-06-22T01:56:02;4.10;;;3.80;;
9445;SDS011;4761;49.490;10.908;2023-06-22T01:58:29;3.95;;;3.65;;
9445;SDS011;4761;49.490;10.908;2023-06-22T02:00:57;4.28;;;3.90;;
9445;SDS011;4761;49.490;10.908;2023-06-22T02:03:45;4.40;;;4.05;;
9445;SDS011;4761;49.490;10.908;2023-06-22T02:06:16;4.30;;;3.90;;
9445;SDS011;4761;49.490;10.908;2023-06-22T02:08:47;4.18;;;3.88;;
9445;SDS011;4761;49.490;10.908;2023-06-22T02:11:16;5.05;;;3.97;;
9445;SDS011;4761;49.490;10.908;2023-06-22T02:13:44;4.43;;;4.03;;
9445;SDS011;4761;49.490;10.908;2023-06-22T02:16:11;4.00;;;3.70;;
9445;SDS011;4761;49.490;10.908;2023-06-22T02:18:38;4.63;;;4.00;;
9445;SDS011;4761;49.490;10.908;2023-06-22T02:21:05;4.40;;;4.00;;
9445;SDS011;4761;49.490;10.908;2023-06-22T02:23:31;3.97;;;3.58;;
9445;SDS011;4761;49.490;10.908;2023-06-22T02:26:00;4.30;;;3.90;;
9445;SDS011;4761;49.490;10.908;2023-06-22T02:28:28;3.90;;;3.60;;
9445;SDS011;4761;49.490;10.908;2023-06-22T02:30:53;3.95;;;3.65;;
9445;SDS011;4761;49.490;10.908;2023-06-22T02:33:19;4.38;;;4.00;;
9445;SDS011;4761;49.490;10.908;2023-06-22T02:35:45;4.60;;;4.20;;
9445;SDS011;4761;49.490;10.908;2023-06-22T02:38:14;4.40;;;4.10;;
9445;SDS011;4761;49.490;10.908;2023-06-22T02:40:39;4.38;;;4.00;;
9445;SDS011;4761;49.490;10.908;2023-06-22T02:43:05;4.32;;;3.92;;
9445;SDS011;4761;49.490;10.908;2023-06-22T02:45:31;4.13;;;3.83;;
9445;SDS011;4761;49.490;10.908;2023-06-22T02:47:56;4.30;;;3.90;;
9445;SDS011;4761;49.490;10.908;2023-06-22T02:50:22;4.00;;;3.70;;
9445;SDS011;4761;49.490;10.908;2023-06-22T02:52:47;4.45;;;4.10;;
9445;SDS011;4761;49.490;10.908;2023-06-22T02:55:13;5.85;;;3.85;;
9445;SDS011;4761;49.490;10.908;2023-06-22T02:57:39;4.05;;;3.65;;
9445;SDS011;4761;49.490;10.908;2023-06-22T03:00:09;4.43;;;4.03;;
9445;SDS011;4761;49.490;10.908;2023-06-22T03:02:43;4.28;;;3.88;;
9445;SDS011;4761;49.490;10.908;2023-06-22T03:05:09;4.22;;;3.83;;
9445;SDS011;4761;49.490;10.908;2023-06-22T03:07:39;4.22;;;3.90;;
9445;SDS011;4761;49.490;10.908;2023-06-22T03:10:05;4.20;;;3.83;;
9445;SDS011;4761;49.490;10.908;2023-06-22T03:12:32;3.97;;;3.67;;
9445;SDS011;4761;49.490;10.908;2023-06-22T03:14:57;4.20;;;3.90;;
9445;SDS011;4761;49.490;10.908;2023-06-22T03:17:23;4.30;;;3.90;;
9445;SDS011;4761;49.490;10.908;2023-06-22T03:19:49;4.80;;;4.10;;
9445;SDS011;4761;49.490;10.908;2023-06-22T03:22:15;4.22;;;3.92;;
9445;SDS011;4761;49.490;10.908;2023-06-22T03:24:40;4.40;;;4.00;;
9445;SDS011;4761;49.490;10.908;2023-06-22T03:27:06;4.57;;;4.18;;
9445;SDS011;4761;49.490;10.908;2023-06-22T03:29:31;4.60;;;4.20;;
9445;SDS011;4761;49.490;10.908;2023-06-22T03:31:57;4.10;;;3.70;;
9445;SDS011;4761;49.490;10.908;2023-06-22T03:34:22;5.45;;;4.47;;
9445;SDS011;4761;49.490;10.908;2023-06-22T03:36:48;7.07;;;5.35;;
9445;SDS011;4761;49.490;10.908;2023-06-22T03:39:14;6.72;;;5.10;;
9445;SDS011;4761;49.490;10.908;2023-06-22T03:41:39;4.88;;;4.40;;
9445;SDS011;4761;49.490;10.908;2023-06-22T03:44:05;6.30;;;4.63;;
9445;SDS011;4761;49.490;10.908;2023-06-22T03:46:30;6.00;;;5.40;;
9445;SDS011;4761;49.490;10.908;2023-06-22T03:48:56;5.88;;;4.63;;
9445;SDS011;4761;49.490;10.908;2023-06-22T03:51:21;4.50;;;4.10;;
9445;SDS011;4761;49.490;10.908;2023-06-22T03:53:47;5.20;;;4.47;;
9445;SDS011;4761;49.490;10.908;2023-06-22T03:56:13;4.57;;;4.18;;
9445;SDS011;4761;49.490;10.908;2023-06-22T03:58:45;5.25;;;4.70;;
9445;SDS011;4761;49.490;10.908;2023-06-22T04:01:10;4.97;;;4.57;;
9445;SDS011;4761;49.490;10.908;2023-06-22T04:03:36;4.70;;;4.30;;
9445;SDS011;4761;49.490;10.908;2023-06-22T04:06:02;4.90;;;4.45;;
9445;SDS011;4761;49.490;10.908;2023-06-22T04:08:29;5.63;;;4.75;;
9445;SDS011;4761;49.490;10.908;2023-06-22T04:10:55;5.05;;;4.35;;
9445;SDS011;4761;49.490;10.908;2023-06-22T04:13:20;5.10;;;4.60;;
9445;SDS011;4761;49.490;10.908;2023-06-22T04:15:46;5.10;;;4.55;;
9445;SDS011;4761;49.490;10.908;2023-06-22T04:18:12;5.38;;;4.88;;
9445;SDS011;4761;49.490;10.908;2023-06-22T04:20:38;4.88;;;4.47;;
9445;SDS011;4761;49.490;10.908;2023-06-22T04:23:04;5.05;;;4.55;;
9445;SDS011;4761;49.490;10.908;2023-06-22T04:25:29;5.30;;;4.88;;
9445;SDS011;4761;49.490;10.908;2023-06-22T04:27:55;5.63;;;5.13;;
9445;SDS011;4761;49.490;10.908;2023-06-22T04:30:20;6.07;;;4.93;;
9445;SDS011;4761;49.490;10.908;2023-06-22T04:32:46;5.03;;;4.57;;
9445;SDS011;4761;49.490;10.908;2023-06-22T04:35:21;5.10;;;4.63;;
9445;SDS011;4761;49.490;10.908;2023-06-22T04:37:47;5.72;;;4.70;;
9445;SDS011;4761;49.490;10.908;2023-06-22T04:40:14;5.30;;;4.80;;
9445;SDS011;4761;49.490;10.908;2023-06-22T04:42:40;4.90;;;4.50;;
9445;SDS011;4761;49.490;10.908;2023-06-22T04:45:05;5.53;;;5.03;;
9445;SDS011;4761;49.490;10.908;2023-06-22T04:47:31;5.00;;;4.60;;
9445;SDS011;4761;49.490;10.908;2023-06-22T04:49:57;5.70;;;5.20;;
9445;SDS011;4761;49.490;10.908;2023-06-22T04:52:22;5.30;;;4.82;;
9445;SDS011;4761;49.490;10.908;2023-06-22T04:54:49;5.40;;;4.90;;
9445;SDS011;4761;49.490;10.908;2023-06-22T04:57:20;5.25;;;4.60;;
9445;SDS011;4761;49.490;10.908;2023-06-22T04:59:46;5.13;;;4.72;;
9445;SDS011;4761;49.490;10.908;2023-06-22T05:02:11;5.72;;;5.10;;
9445;SDS011;4761;49.490;10.908;2023-06-22T05:04:37;4.75;;;4.38;;
9445;SDS011;4761;49.490;10.908;2023-06-22T05:07:05;5.18;;;4.78;;
9445;SDS011;4761;49.490;10.908;2023-06-22T05:09:31;5.30;;;4.80;;
9445;SDS011;4761;49.490;10.908;2023-06-22T05:11:58;5.32;;;4.82;;
9445;SDS011;4761;49.490;10.908;2023-06-22T05:14:26;5.00;;;4.60;;
9445;SDS011;4761;49.490;10.908;2023-06-22T05:16:52;4.82;;;4.43;;
9445;SDS011;4761;49.490;10.908;2023-06-22T05:19:18;5.40;;;5.00;;
9445;SDS011;4761;49.490;10.908;2023-06-22T05:21:43;4.93;;;4.53;;
9445;SDS011;4761;49.490;10.908;2023-06-22T05:24:09;4.60;;;4.20;;
9445;SDS011;4761;49.490;10.908;2023-06-22T05:26:34;5.07;;;4.68;;
9445;SDS011;4761;49.490;10.908;2023-06-22T05:29:00;4.90;;;4.50;;
9445;SDS011;4761;49.490;10.908;2023-06-22T05:31:27;5.20;;;4.80;;
9445;SDS011;4761;49.490;10.908;2023-06-22T05:33:54;5.03;;;4.63;;
9445;SDS011;4761;49.490;10.908;2023-06-22T05:36:20;4.43;;;4.03;;
9445;SDS011;4761;49.490;10.908;2023-06-22T05:38:46;4.80;;;4.40;;
9445;SDS011;4761;49.490;10.908;2023-06-22T05:41:12;5.10;;;4.53;;
9445;SDS011;4761;49.490;10.908;2023-06-22T05:43:38;5.18;;;4.68;;
9445;SDS011;4761;49.490;10.908;2023-06-22T05:46:04;5.20;;;4.70;;
9445;SDS011;4761;49.490;10.908;2023-06-22T05:48:30;4.75;;;4.35;;
9445;SDS011;4761;49.490;10.908;2023-06-22T05:50:55;4.85;;;4.45;;
9445;SDS011;4761;49.490;10.908;2023-06-22T05:53:21;5.32;;;4.82;;
9445;SDS011;4761;49.490;10.908;2023-06-22T05:55:47;5.40;;;4.53;;
9445;SDS011;4761;49.490;10.908;2023-06-22T05:58:13;5.20;;;4.70;;
9445;SDS011;4761;49.490;10.908;2023-06-22T06:00:39;4.88;;;4.47;;
9445;SDS011;4761;49.490;10.908;2023-06-22T06:03:06;4.90;;;4.45;;
9445;SDS011;4761;49.490;10.908;2023-06-22T06:05:32;5.22;;;4.72;;
9445;SDS011;4761;49.490;10.908;2023-06-22T06:07:59;4.70;;;4.30;;
9445;SDS011;4761;49.490;10.908;2023-06-22T06:10:26;4.97;;;4.57;;
9445;SDS011;4761;49.490;10.908;2023-06-22T06:12:54;5.00;;;4.50;;
9445;SDS011;4761;49.490;10.908;2023-06-22T06:15:20;4.82;;;4.43;;
9445;SDS011;4761;49.490;10.908;2023-06-22T06:17:46;5.30;;;4.82;;
9445;SDS011;4761;49.490;10.908;2023-06-22T06:20:12;5.32;;;4.82;;
9445;SDS011;4761;49.490;10.908;2023-06-22T06:22:38;5.50;;;5.00;;
9445;SDS011;4761;49.490;10.908;2023-06-22T06:25:04;5.10;;;4.70;;
9445;SDS011;4761;49.490;10.908;2023-06-22T06:27:30;4.90;;;4.50;;
9445;SDS011;4761;49.490;10.908;2023-06-22T06:29:56;5.43;;;4.93;;
9445;SDS011;4761;49.490;10.908;2023-06-22T06:32:22;4.93;;;4.53;;
9445;SDS011;4761;49.490;10.908;2023-06-22T06:34:47;5.05;;;4.65;;
9445;SDS011;4761;49.490;10.908;2023-06-22T06:37:13;5.20;;;4.80;;
9445;SDS011;4761;49.490;10.908;2023-06-22T06:39:38;5.57;;;5.07;;
9445;SDS011;4761;49.490;10.908;2023-06-22T06:42:04;5.45;;;5.00;;
9445;SDS011;4761;49.490;10.908;2023-06-22T06:44:30;5.55;;;5.05;;
9445;SDS011;4761;49.490;10.908;2023-06-22T06:46:56;5.05;;;4.65;;
9445;SDS011;4761;49.490;10.908;2023-06-22T06:49:21;5.40;;;4.72;;
9445;SDS011;4761;49.490;10.908;2023-06-22T06:51:47;4.95;;;4.55;;
9445;SDS011;4761;49.490;10.908;2023-06-22T06:54:12;5.43;;;4.93;;
9445;SDS011;4761;49.490;10.908;2023-06-22T06:56:38;5.43;;;5.00;;
9445;SDS011;4761;49.490;10.908;2023-06-22T06:59:03;4.70;;;4.30;;
9445;SDS011;4761;49.490;10.908;2023-06-22T07:01:29;4.75;;;4.35;;
9445;SDS011;4761;49.490;10.908;2023-06-22T07:03:58;5.13;;;4.63;;
9445;SDS011;4761;49.490;10.908;2023-06-22T07:06:24;7.10;;;5.03;;
9445;SDS011;4761;49.490;10.908;2023-06-22T07:08:54;5.28;;;4.88;;
9445;SDS011;4761;49.490;10.908;2023-06-22T07:11:21;5.07;;;4.68;;
9445;SDS011;4761;49.490;10.908;2023-06-22T07:13:46;5.47;;;4.97;;
9445;SDS011;4761;49.490;10.908;2023-06-22T07:16:12;5.05;;;4.65;;
9445;SDS011;4761;49.490;10.908;2023-06-22T07:18:39;4.78;;;4.38;;
9445;SDS011;4761;49.490;10.908;2023-06-22T07:21:05;4.80;;;4.40;;
9445;SDS011;4761;49.490;10.908;2023-06-22T07:23:31;4.90;;;4.50;;
9445;SDS011;4761;49.490;10.908;2023-06-22T07:25:57;4.88;;;4.47;;
9445;SDS011;4761;49.490;10.908;2023-06-22T07:28:26;4.80;;;4.40;;
9445;SDS011;4761;49.490;10.908;2023-06-22T07:30:52;5.00;;;4.38;;
9445;SDS011;4761;49.490;10.908;2023-06-22T07:33:18;5.22;;;4.78;;
9445;SDS011;4761;49.490;10.908;2023-06-22T07:35:44;5.05;;;4.65;;
9445;SDS011;4761;49.490;10.908;2023-06-22T07:38:10;4.70;;;4.30;;
9445;SDS011;4761;49.490;10.908;2023-06-22T07:40:35;4.60;;;4.20;;
9445;SDS011;4761;49.490;10.908;2023-06-22T07:43:01;4.88;;;4.47;;
9445;SDS011;4761;49.490;10.908;2023-06-22T07:45:28;4.25;;;3.85;;
9445;SDS011;4761;49.490;10.908;2023-06-22T07:47:54;4.82;;;4.32;;
9445;SDS011;4761;49.490;10.908;2023-06-22T07:50:20;5.25;;;4.82;;
9445;SDS011;4761;49.490;10.908;2023-06-22T07:52:45;5.40;;;4.32;;
9445;SDS011;4761;49.490;10.908;2023-06-22T07:55:12;4.43;;;4.10;;
9445;SDS011;4761;49.490;10.908;2023-06-22T07:57:38;4.88;;;4.47;;
9445;SDS011;4761;49.490;10.908;2023-06-22T08:00:04;4.40;;;4.00;;
9445;SDS011;4761;49.490;10.908;2023-06-22T08:02:38;4.47;;;4.07;;
9445;SDS011;4761;49.490;10.908;2023-06-22T08:05:05;4.68;;;4.28;;
9445;SDS011;4761;49.490;10.908;2023-06-22T08:07:32;4.22;;;3.92;;
9445;SDS011;4761;49.490;10.908;2023-06-22T08:09:57;4.32;;;4.00;;
9445;SDS011;4761;49.490;10.908;2023-06-22T08:12:23;4.40;;;4.00;;
9445;SDS011;4761;49.490;10.908;2023-06-22T08:14:48;4.45;;;4.05;;
9445;SDS011;4761;49.490;10.908;2023-06-22T08:17:15;4.13;;;3.83;;
9445;SDS011;4761;49.490;10.908;2023-06-22T08:19:41;4.40;;;4.00;;
9445;SDS011;4761;49.490;10.908;2023-06-22T08:22:06;4.38;;;3.97;;
9445;SDS011;4761;49.490;10.908;2023-06-22T08:24:32;4.35;;;3.95;;
9445;SDS011;4761;49.490;10.908;2023-06-22T08:26:57;4.47;;;4.15;;
9445;SDS011;4761;49.490;10.908;2023-06-22T08:29:23;4.05;;;3.75;;
9445;SDS011;4761;49.490;10.908;2023-06-22T08:31:49;4.40;;;4.10;;
9445;SDS011;4761;49.490;10.908;2023-06-22T08:34:14;4.10;;;3.80;;
9445;SDS011;4761;49.490;10.908;2023-06-22T08:36:40;3.67;;;3.38;;
9445;SDS011;4761;49.490;10.908;2023-06-22T08:39:09;2.78;;;2.58;;
9445;SDS011;4761;49.490;10.908;2023-06-22T08:41:35;2.60;;;2.30;;
9445;SDS011;4761;49.490;10.908;2023-06-22T08:44:00;2.28;;;2.08;;
9445;SDS011;4761;49.490;10.908;2023-06-22T08:46:26;2.45;;;2.28;;
9445;SDS011;4761;49.490;10.908;2023-06-22T08:48:55;2.63;;;2.42;;
9445;SDS011;4761;49.490;10.908;2023-06-22T08:51:22;3.00;;;2.80;;
9445;SDS011;4761;49.490;10.908;2023-06-22T08:53:48;2.60;;;2.40;;
9445;SDS011;4761;49.490;10.908;2023-06-22T08:56:13;2.92;;;2.72;;
9445;SDS011;4761;49.490;10.908;2023-06-22T08:58:39;4.68;;;2.60;;
9445;SDS011;4761;49.490;10.908;2023-06-22T09:01:04;3.60;;;2.47;;
9445;SDS011;4761;49.490;10.908;2023-06-22T09:03:30;2.90;;;2.58;;
9445;SDS011;4761;49.490;10.908;2023-06-22T09:05:57;19.73;;;3.63;;
9445;SDS011;4761;49.490;10.908;2023-06-22T09:08:23;22.10;;;4.50;;
9445;SDS011;4761;49.490;10.908;2023-06-22T09:10:49;23.23;;;4.90;;
9445;SDS011;4761;49.490;10.908;2023-06-22T09:13:14;19.48;;;4.38;;
9445;SDS011;4761;49.490;10.908;2023-06-22T09:15:40;25.95;;;5.18;;
9445;SDS011;4761;49.490;10.908;2023-06-22T09:18:05;19.55;;;4.22;;
9445;SDS011;4761;49.490;10.908;2023-06-22T09:20:31;13.43;;;4.25;;
9445;SDS011;4761;49.490;10.908;2023-06-22T09:22:57;16.88;;;4.70;;
9445;SDS011;4761;49.490;10.908;2023-06-22T09:25:23;8.93;;;3.33;;
9445;SDS011;4761;49.490;10.908;2023-06-22T09:27:48;15.70;;;4.10;;
9445;SDS011;4761;49.490;10.908;2023-06-22T09:30:14;13.90;;;4.18;;
9445;SDS011;4761;49.490;10.908;2023-06-22T09:32:39;13.90;;;4.20;;
9445;SDS011;4761;49.490;10.908;2023-06-22T09:35:05;14.10;;;4.20;;
9445;SDS011;4761;49.490;10.908;2023-06-22T09:37:31;14.30;;;4.43;;
9445;SDS011;4761;49.490;10.908;2023-06-22T09:39:57;13.68;;;3.92;;
9445;SDS011;4761;49.490;10.908;2023-06-22T09:42:23;16.55;;;4.15;;
9445;SDS011;4761;49.490;10.908;2023-06-22T09:44:48;12.40;;;4.07;;
9445;SDS011;4761;49.490;10.908;2023-06-22T09:47:14;8.20;;;3.80;;
9445;SDS011;4761;49.490;10.908;2023-06-22T09:49:39;11.75;;;4.07;;
9445;SDS011;4761;49.490;10.908;2023-06-22T09:52:05;9.20;;;3.97;;
9445;SDS011;4761;49.490;10.908;2023-06-22T09:54:30;10.25;;;4.75;;
9445;SDS011;4761;49.490;10.908;2023-06-22T09:56:56;10.95;;;4.35;;
9445;SDS011;4761;49.490;10.908;2023-06-22T09:59:22;8.38;;;4.03;;
9445;SDS011;4761;49.490;10.908;2023-06-22T10:01:47;10.30;;;3.70;;
9445;SDS011;4761;49.490;10.908;2023-06-22T10:04:13;9.38;;;4.22;;
9445;SDS011;4761;49.490;10.908;2023-06-22T10:06:38;9.25;;;4.28;;
9445;SDS011;4761;49.490;10.908;2023-06-22T10:09:05;7.80;;;4.18;;
9445;SDS011;4761;49.490;10.908;2023-06-22T10:11:32;9.98;;;3.88;;
9445;SDS011;4761;49.490;10.908;2023-06-22T10:13:59;10.27;;;4.50;;
9445;SDS011;4761;49.490;10.908;2023-06-22T10:16:30;7.68;;;4.22;;
9445;SDS011;4761;49.490;10.908;2023-06-22T10:18:56;9.25;;;4.60;;
9445;SDS011;4761;49.490;10.908;2023-06-22T10:21:22;6.13;;;4.30;;
9445;SDS011;4761;49.490;10.908;2023-06-22T10:23:47;9.65;;;4.30;;
9445;SDS011;4761;49.490;10.908;2023-06-22T10:26:13;6.80;;;4.40;;
9445;SDS011;4761;49.490;10.908;2023-06-22T10:28:38;8.00;;;4.30;;
9445;SDS011;4761;49.490;10.908;2023-06-22T10:31:04;8.45;;;4.13;;
9445;SDS011;4761;49.490;10.908;2023-06-22T10:33:29;8.63;;;4.63;;
9445;SDS011;4761;49.490;10.908;2023-06-22T10:35:55;8.48;;;4.50;;
9445;SDS011;4761;49.490;10.908;2023-06-22T10:38:20;6.55;;;4.30;;
9445;SDS011;4761;49.490;10.908;2023-06-22T10:40:46;9.30;;;4.50;;
9445;SDS011;4761;49.490;10.908;2023-06-22T10:43:11;7.15;;;4.18;;
9445;SDS011;4761;49.490;10.908;2023-06-22T10:45:37;7.00;;;4.80;;
9445;SDS011;4761;49.490;10.908;2023-06-22T10:48:02;5.53;;;4.30;;
9445;SDS011;4761;49.490;10.908;2023-06-22T10:50:28;5.72;;;3.95;;
9445;SDS011;4761;49.490;10.908;2023-06-22T10:52:54;6.07;;;3.83;;
9445;SDS011;4761;49.490;10.908;2023-06-22T10:55:20;5.25;;;4.10;;
9445;SDS011;4761;49.490;10.908;2023-06-22T10:57:46;7.32;;;4.22;;
9445;SDS011;4761;49.490;10.908;2023-06-22T11:00:12;5.35;;;4.03;;
9445;SDS011;4761;49.490;10.908;2023-06-22T11:02:39;8.10;;;4.50;;
9445;SDS011;4761;49.490;10.908;2023-06-22T11:05:05;6.65;;;4.40;;
9445;SDS011;4761;49.490;10.908;2023-06-22T11:07:30;5.43;;;4.32;;
9445;SDS011;4761;49.490;10.908;2023-06-22T11:09:56;5.75;;;4.40;;
9445;SDS011;4761;49.490;10.908;2023-06-22T11:12:22;4.32;;;3.90;;
9445;SDS011;4761;49.490;10.908;2023-06-22T11:14:47;5.80;;;4.03;;
9445;SDS011;4761;49.490;10.908;2023-06-22T11:17:15;4.93;;;4.20;;
9445;SDS011;4761;49.490;10.908;2023-06-22T11:19:40;5.00;;;4.43;;
9445;SDS011;4761;49.490;10.908;2023-06-22T11:22:06;6.25;;;4.38;;
9445;SDS011;4761;49.490;10.908;2023-06-22T11:24:31;6.78;;;4.57;;
9445;SDS011;4761;49.490;10.908;2023-06-22T11:26:57;5.70;;;3.92;;
9445;SDS011;4761;49.490;10.908;2023-06-22T11:29:23;7.50;;;4.43;;
9445;SDS011;4761;49.490;10.908;2023-06-22T11:31:48;4.25;;;3.92;;
9445;SDS011;4761;49.490;10.908;2023-06-22T11:34:14;5.20;;;4.18;;
9445;SDS011;4761;49.490;10.908;2023-06-22T11:36:39;5.03;;;4.10;;
9445;SDS011;4761;49.490;10.908;2023-06-22T11:39:05;4.15;;;3.75;;
9445;SDS011;4761;49.490;10.908;2023-06-22T11:41:30;8.30;;;3.85;;
9445;SDS011;4761;49.490;10.908;2023-06-22T11:43:56;4.50;;;4.10;;
9445;SDS011;4761;49.490;10.908;2023-06-22T11:46:21;6.15;;;4.15;;
9445;SDS011;4761;49.490;10.908;2023-06-22T11:48:47;5.90;;;3.75;;
9445;SDS011;4761;49.490;10.908;2023-06-22T11:51:12;4.57;;;3.90;;
9445;SDS011;4761;49.490;10.908;2023-06-22T11:53:38;3.50;;;3.13;;
9445;SDS011;4761;49.490;10.908;2023-06-22T11:56:03;13.02;;;4.25;;
9445;SDS011;4761;49.490;10.908;2023-06-22T11:58:29;13.25;;;4.20;;
9445;SDS011;4761;49.490;10.908;2023-06-22T12:00:54;11.43;;;3.42;;
9445;SDS011;4761;49.490;10.908;2023-06-22T12:03:20;5.90;;;3.10;;
9445;SDS011;4761;49.490;10.908;2023-06-22T12:05:49;9.98;;;3.67;;
9445;SDS011;4761;49.490;10.908;2023-06-22T12:08:15;12.20;;;3.97;;
9445;SDS011;4761;49.490;10.908;2023-06-22T12:10:41;7.63;;;3.65;;
9445;SDS011;4761;49.490;10.908;2023-06-22T12:13:06;10.30;;;3.83;;
9445;SDS011;4761;49.490;10.908;2023-06-22T12:15:32;8.68;;;3.65;;
9445;SDS011;4761;49.490;10.908;2023-06-22T12:17:57;6.22;;;3.60;;
9445;SDS011;4761;49.490;10.908;2023-06-22T12:20:23;7.25;;;3.40;;
9445;SDS011;4761;49.490;10.908;2023-06-22T12:22:48;8.35;;;3.60;;
9445;SDS011;4761;49.490;10.908;2023-06-22T12:25:16;9.48;;;3.60;;
9445;SDS011;4761;49.490;10.908;2023-06-22T12:27:42;7.60;;;3.17;;
9445;SDS011;4761;49.490;10.908;2023-06-22T12:30:08;6.57;;;3.17;;
9445;SDS011;4761;49.490;10.908;2023-06-22T12:32:34;4.70;;;3.05;;
9445;SDS011;4761;49.490;10.908;2023-06-22T12:34:59;5.40;;;3.13;;
9445;SDS011;4761;49.490;10.908;2023-06-22T12:37:25;4.88;;;3.30;;
9445;SDS011;4761;49.490;10.908;2023-06-22T12:39:50;4.68;;;2.40;;
9445;SDS011;4761;49.490;10.908;2023-06-22T12:42:16;6.00;;;2.70;;
9445;SDS011;4761;49.490;10.908;2023-06-22T12:44:42;3.65;;;2.45;;
9445;SDS011;4761;49.490;10.908;2023-06-22T12:47:08;4.68;;;2.92;;
9445;SDS011;4761;49.490;10.908;2023-06-22T12:49:34;3.53;;;2.47;;
9445;SDS011;4761;49.490;10.908;2023-06-22T12:52:01;5.72;;;2.90;;
9445;SDS011;4761;49.490;10.908;2023-06-22T12:54:27;4.00;;;2.78;;
9445;SDS011;4761;49.490;10.908;2023-06-22T12:56:54;4.20;;;2.60;;
9445;SDS011;4761;49.490;10.908;2023-06-22T12:59:20;6.57;;;2.63;;
9445;SDS011;4761;49.490;10.908;2023-06-22T13:01:45;3.33;;;2.67;;
9445;SDS011;4761;49.490;10.908;2023-06-22T13:04:11;3.10;;;2.75;;
9445;SDS011;4761;49.490;10.908;2023-06-22T13:06:40;3.42;;;2.83;;
9445;SDS011;4761;49.490;10.908;2023-06-22T13:09:06;2.78;;;2.58;;
9445;SDS011;4761;49.490;10.908;2023-06-22T13:11:31;3.83;;;2.85;;
9445;SDS011;4761;49.490;10.908;2023-06-22T13:13:57;6.75;;;2.80;;
9445;SDS011;4761;49.490;10.908;2023-06-22T13:16:22;4.95;;;3.00;;
9445;SDS011;4761;49.490;10.908;2023-06-22T13:18:47;3.45;;;2.92;;
9445;SDS011;4761;49.490;10.908;2023-06-22T13:21:13;7.28;;;3.38;;
9445;SDS011;4761;49.490;10.908;2023-06-22T13:23:39;4.65;;;3.42;;
9445;SDS011;4761;49.490;10.908;2023-06-22T13:26:04;5.93;;;3.50;;
9445;SDS011;4761;49.490;10.908;2023-06-22T13:28:30;3.63;;;3.25;;
9445;SDS011;4761;49.490;10.908;2023-06-22T13:30:55;4.13;;;3.05;;
9445;SDS011;4761;49.490;10.908;2023-06-22T13:33:21;4.57;;;3.53;;
9445;SDS011;4761;49.490;10.908;2023-06-22T13:35:46;4.30;;;3.70;;
9445;SDS011;4761;49.490;10.908;2023-06-22T13:38:12;4.45;;;3.50;;
9445;SDS011;4761;49.490;10.908;2023-06-22T13:40:37;5.53;;;3.58;;
9445;SDS011;4761;49.490;10.908;2023-06-22T13:43:04;5.65;;;3.45;;
9445;SDS011;4761;49.490;10.908;2023-06-22T13:45:29;6.03;;;3.90;;
9445;SDS011;4761;49.490;10.908;2023-06-22T13:47:55;4.22;;;3.63;;
9445;SDS011;4761;49.490;10.908;2023-06-22T13:50:21;4.28;;;3.63;;
9445;SDS011;4761;49.490;10.908;2023-06-22T13:52:46;3.67;;;3.38;;
9445;SDS011;4761;49.490;10.908;2023-06-22T13:55:12;5.75;;;3.50;;
9445;SDS011;4761;49.490;10.908;2023-06-22T13:57:39;4.13;;;3.72;;
9445;SDS011;4761;49.490;10.908;2023-06-22T14:00:05;5.15;;;3.50;;
9445;SDS011;4761;49.490;10.908;2023-06-22T14:02:32;4.00;;;3.50;;
9445;SDS011;4761;49.490;10.908;2023-06-22T14:04:58;4.13;;;3.70;;
9445;SDS011;4761;49.490;10.908;2023-06-22T14:07:23;4.50;;;3.80;;
9445;SDS011;4761;49.490;10.908;2023-06-22T14:09:49;4.72;;;3.70;;
9445;SDS011;4761;49.490;10.908;2023-06-22T14:12:15;5.10;;;3.70;;
9445;SDS011;4761;49.490;10.908;2023-06-22T14:14:42;5.82;;;4.28;;
9445;SDS011;4761;49.490;10.908;2023-06-22T14:17:08;4.78;;;4.28;;
9445;SDS011;4761;49.490;10.908;2023-06-22T14:19:34;4.40;;;3.67;;
9445;SDS011;4761;49.490;10.908;2023-06-22T14:21:59;4.55;;;4.00;;
9445;SDS011;4761;49.490;10.908;2023-06-22T14:24:25;5.00;;;4.43;;
9445;SDS011;4761;49.490;10.908;2023-06-22T14:26:50;5.03;;;4.13;;
9445;SDS011;4761;49.490;10.908;2023-06-22T14:29:16;4.20;;;3.80;;
9445;SDS011;4761;49.490;10.908;2023-06-22T14:31:44;3.83;;;3.10;;
9445;SDS011;4761;49.490;10.908;2023-06-22T14:34:10;3.85;;;2.90;;
9445;SDS011;4761;49.490;10.908;2023-06-22T14:36:35;3.47;;;3.17;;
9445;SDS011;4761;49.490;10.908;2023-06-22T14:39:01;3.10;;;2.80;;
9445;SDS011;4761;49.490;10.908;2023-06-22T14:41:27;4.53;;;3.28;;
9445;SDS011;4761;49.490;10.908;2023-06-22T14:43:52;3.17;;;2.88;;
9445;SDS011;4761;49.490;10.908;2023-06-22T14:46:18;3.20;;;2.90;;
9445;SDS011;4761;49.490;10.908;2023-06-22T14:48:44;3.20;;;2.90;;
9445;SDS011;4761;49.490;10.908;2023-06-22T14:51:10;3.05;;;2.75;;
9445;SDS011;4761;49.490;10.908;2023-06-22T14:53:36;3.88;;;3.13;;
9445;SDS011;4761;49.490;10.908;2023-06-22T14:56:02;3.25;;;2.95;;
9445;SDS011;4761;49.490;10.908;2023-06-22T14:58:30;5.60;;;3.25;;
9445;SDS011;4761;49.490;10.908;2023-06-22T15:00:58;3.30;;;3.00;;
9445;SDS011;4761;49.490;10.908;2023-06-22T15:03:24;2.90;;;2.60;;
9445;SDS011;4761;49.490;10.908;2023-06-22T15:05:52;3.63;;;2.80;;